createdAt,value
2019-05-23T00:02:34.774Z,6.63
2019-05-23T00:05:56.846Z,7.10
2019-05-23T00:08:44.224Z,7.17
2019-05-23T00:11:40.060Z,7.40
2019-05-23T00:14:32.232Z,8.00
2019-05-23T00:17:20.506Z,7.63
2019-05-23T00:20:08.782Z,7.43
2019-05-23T00:22:57.026Z,7.33
2019-05-23T00:25:45.378Z,8.03
2019-05-23T00:28:33.153Z,7.73
2019-05-23T00:31:24.197Z,8.00
2019-05-23T00:34:12.058Z,7.43
2019-05-23T00:37:00.404Z,7.50
2019-05-23T00:39:48.500Z,8.00
2019-05-23T00:42:36.018Z,8.60
2019-05-23T00:45:24.248Z,8.03
2019-05-23T00:48:12.445Z,8.63
2019-05-23T00:51:04.581Z,8.23
2019-05-23T00:53:48.394Z,7.53
2019-05-23T00:56:36.638Z,7.83
2019-05-23T00:59:27.587Z,8.33
2019-05-23T01:02:12.878Z,7.90
2019-05-23T01:05:01.208Z,8.03
2019-05-23T01:07:49.139Z,7.67
2019-05-23T01:10:37.104Z,7.97
2019-05-23T01:13:25.082Z,7.57
2019-05-23T01:16:12.556Z,8.00
2019-05-23T01:19:00.453Z,7.10
2019-05-23T01:22:00.669Z,7.90
2019-05-23T01:24:50.913Z,7.53
2019-05-23T01:27:38.265Z,7.23
2019-05-23T01:30:26.869Z,8.30
2019-05-23T01:33:14.486Z,7.63
2019-05-23T01:36:02.862Z,7.53
2019-05-23T01:38:50.769Z,8.00
2019-05-23T01:41:38.525Z,8.37
2019-05-23T01:44:25.921Z,8.83
2019-05-23T01:47:14.366Z,8.47
2019-05-23T01:50:02.714Z,8.83
2019-05-23T01:52:50.414Z,8.90
2019-05-23T01:55:38.282Z,8.83
2019-05-23T01:58:26.151Z,9.07
2019-05-23T02:01:14.287Z,8.77
2019-05-23T02:04:02.502Z,8.50
2019-05-23T02:06:49.799Z,9.20
2019-05-23T02:09:38.493Z,8.87
2019-05-23T02:12:25.791Z,8.43
2019-05-23T02:15:13.285Z,7.80
2019-05-23T02:18:01.635Z,8.57
2019-05-23T02:20:49.317Z,8.83
2019-05-23T02:23:36.826Z,8.93
2019-05-23T02:26:24.438Z,10.60
2019-05-23T02:29:12.143Z,11.23
2019-05-23T02:32:00.046Z,10.63
2019-05-23T02:34:48.582Z,10.03
2019-05-23T02:37:54.479Z,11.37
2019-05-23T02:40:49.518Z,11.07
2019-05-23T02:43:38.699Z,10.37
2019-05-23T02:46:30.078Z,10.70
2019-05-23T02:49:19.425Z,10.30
2019-05-23T02:52:35.450Z,10.80
2019-05-23T02:55:28.594Z,10.83
2019-05-23T02:58:22.468Z,10.77
2019-05-23T03:01:28.478Z,9.87
2019-05-23T03:04:19.456Z,10.40
2019-05-23T03:07:07.348Z,10.17
2019-05-23T03:09:55.544Z,10.17
2019-05-23T03:12:46.337Z,11.00
2019-05-23T03:15:34.644Z,10.20
2019-05-23T03:18:22.531Z,10.80
2019-05-23T03:21:10.009Z,10.23
2019-05-23T03:23:58.143Z,10.27
2019-05-23T03:27:15.544Z,10.70
2019-05-23T03:30:04.700Z,12.97
2019-05-23T03:32:55.175Z,10.97
2019-05-23T03:35:44.953Z,10.70
2019-05-23T03:38:32.756Z,10.37
2019-05-23T03:41:20.346Z,10.43
2019-05-23T03:44:07.988Z,12.80
2019-05-23T03:46:56.518Z,12.03
2019-05-23T03:49:44.879Z,12.60
2019-05-23T03:52:33.069Z,14.07
2019-05-23T03:55:21.899Z,14.17
2019-05-23T03:58:09.260Z,11.40
2019-05-23T04:00:57.175Z,10.30
2019-05-23T04:03:45.450Z,10.20
2019-05-23T04:06:33.022Z,9.90
2019-05-23T04:09:20.839Z,9.80
2019-05-23T04:12:08.413Z,9.70
2019-05-23T04:14:56.675Z,9.70
2019-05-23T04:17:44.397Z,9.27
2019-05-23T04:20:32.233Z,9.50
2019-05-23T04:23:19.891Z,9.40
2019-05-23T04:26:07.165Z,10.73
2019-05-23T04:28:54.890Z,10.10
2019-05-23T04:31:42.397Z,10.27
2019-05-23T04:34:30.577Z,9.33
2019-05-23T04:37:18.181Z,9.33
2019-05-23T04:40:06.577Z,10.20
2019-05-23T04:42:54.203Z,10.47
2019-05-23T04:45:41.612Z,10.70
2019-05-23T04:48:29.451Z,10.93
2019-05-23T04:51:17.152Z,10.73
2019-05-23T04:54:04.686Z,10.80
2019-05-23T04:56:52.979Z,11.30
2019-05-23T04:59:41.269Z,9.83
2019-05-23T05:02:29.247Z,8.53
2019-05-23T05:05:17.152Z,8.63
2019-05-23T05:08:05.674Z,9.00
2019-05-23T05:10:53.708Z,9.43
2019-05-23T05:13:41.976Z,9.43
2019-05-23T05:16:29.577Z,9.17
2019-05-23T05:19:17.631Z,8.97
2019-05-23T05:22:05.945Z,8.50
2019-05-23T05:24:54.309Z,8.97
2019-05-23T05:27:42.340Z,9.27
2019-05-23T05:30:29.955Z,8.60
2019-05-23T05:33:18.122Z,7.63
2019-05-23T05:36:06.582Z,8.20
2019-05-23T05:38:54.110Z,8.17
2019-05-23T05:41:42.126Z,8.90
2019-05-23T05:44:30.276Z,7.67
2019-05-23T05:47:18.022Z,7.70
2019-05-23T05:50:07.314Z,8.13
2019-05-23T05:52:55.175Z,7.20
2019-05-23T05:55:42.657Z,7.87
2019-05-23T05:58:30.280Z,8.20
2019-05-23T06:01:32.868Z,8.00
2019-05-23T06:04:06.057Z,7.90
2019-05-23T06:06:59.066Z,7.23
2019-05-23T06:09:48.014Z,8.07
2019-05-23T06:12:36.137Z,7.63
2019-05-23T06:15:24.224Z,7.27
2019-05-23T06:18:12.275Z,6.77
2019-05-23T06:21:00.045Z,7.20
2019-05-23T06:23:47.868Z,6.43
2019-05-23T06:26:36.015Z,6.63
2019-05-23T06:29:24.100Z,5.73
2019-05-23T06:32:12.530Z,4.83
2019-05-23T06:34:59.907Z,4.93
2019-05-23T06:37:48.870Z,5.10
2019-05-23T06:40:36.279Z,4.30
2019-05-23T06:43:24.660Z,4.33
2019-05-23T06:46:12.242Z,4.80
2019-05-23T06:49:00.737Z,4.00
2019-05-23T06:51:48.291Z,4.00
2019-05-23T06:54:36.527Z,4.30
2019-05-23T06:57:24.107Z,3.70
2019-05-23T07:00:11.533Z,3.90
2019-05-23T07:02:59.345Z,3.30
2019-05-23T07:05:46.954Z,2.70
2019-05-23T07:08:35.411Z,2.13
2019-05-23T07:11:23.027Z,2.70
2019-05-23T07:14:11.337Z,3.10
2019-05-23T07:16:58.799Z,2.30
2019-05-23T07:19:46.511Z,2.37
2019-05-23T07:22:33.956Z,2.17
2019-05-23T07:25:21.926Z,1.87
2019-05-23T07:28:09.467Z,1.40
2019-05-23T07:30:57.307Z,1.10
2019-05-23T07:34:00.405Z,1.40
2019-05-23T07:36:32.935Z,1.70
2019-05-23T07:39:20.679Z,2.20
2019-05-23T07:42:10.550Z,2.20
2019-05-23T07:44:57.937Z,2.00
2019-05-23T07:47:45.410Z,1.87
2019-05-23T07:50:33.139Z,2.00
2019-05-23T07:53:43.604Z,2.10
2019-05-23T07:56:28.475Z,1.70
2019-05-23T07:59:16.003Z,1.50
2019-05-23T08:02:10.938Z,2.20
2019-05-23T08:04:58.272Z,1.80
2019-05-23T08:07:46.186Z,2.00
2019-05-23T08:10:34.551Z,1.60
2019-05-23T08:13:21.495Z,1.50
2019-05-23T08:16:09.652Z,1.60
2019-05-23T08:18:57.445Z,2.30
2019-05-23T08:21:45.227Z,1.63
2019-05-23T08:24:32.704Z,1.43
2019-05-23T08:27:20.574Z,1.43
2019-05-23T08:30:08.733Z,1.73
2019-05-23T08:32:56.910Z,1.83
2019-05-23T08:35:45.089Z,1.10
2019-05-23T08:38:33.028Z,1.30
2019-05-23T08:41:21.095Z,1.20
2019-05-23T08:44:11.528Z,1.30
2019-05-23T08:46:56.964Z,1.20
2019-05-23T08:49:44.831Z,1.10
2019-05-23T08:52:32.329Z,1.00
2019-05-23T08:55:20.895Z,1.10
2019-05-23T08:58:08.320Z,1.10
2019-05-23T09:00:55.862Z,0.93
2019-05-23T09:03:44.371Z,1.05
2019-05-23T09:06:32.366Z,1.10
2019-05-23T09:09:29.591Z,0.70
2019-05-23T09:12:08.610Z,1.10
2019-05-23T09:14:56.262Z,1.02
2019-05-23T09:17:53.097Z,0.85
2019-05-23T09:20:32.504Z,0.90
2019-05-23T09:23:20.250Z,1.05
2019-05-23T09:26:08.293Z,0.80
2019-05-23T09:28:56.051Z,0.85
2019-05-23T09:31:43.465Z,0.80
2019-05-23T09:34:31.228Z,0.90
2019-05-23T09:37:18.834Z,0.90
2019-05-23T09:40:07.151Z,0.85
2019-05-23T09:42:54.815Z,0.70
2019-05-23T09:45:42.659Z,1.82
2019-05-23T09:48:30.219Z,0.70
2019-05-23T09:51:18.291Z,0.60
2019-05-23T09:54:06.040Z,0.70
2019-05-23T09:56:53.861Z,0.70
2019-05-23T09:59:41.726Z,1.85
2019-05-23T10:02:29.429Z,2.90
2019-05-23T10:05:16.880Z,0.70
2019-05-23T10:08:04.603Z,0.85
2019-05-23T10:10:52.278Z,0.80
2019-05-23T10:13:40.351Z,0.95
2019-05-23T10:16:27.783Z,0.78
2019-05-23T10:19:15.357Z,1.00
2019-05-23T10:22:03.101Z,1.12
2019-05-23T10:24:50.618Z,0.80
2019-05-23T10:27:38.241Z,0.80
2019-05-23T10:30:26.150Z,0.90
2019-05-23T10:33:14.509Z,0.98
2019-05-23T10:36:02.270Z,1.02
2019-05-23T10:38:50.244Z,1.45
2019-05-23T10:41:37.847Z,1.07
2019-05-23T10:44:25.363Z,1.30
2019-05-23T10:47:13.103Z,1.15
2019-05-23T10:50:07.237Z,1.20
2019-05-23T10:52:49.055Z,1.25
2019-05-23T10:55:37.131Z,1.07
2019-05-23T10:58:25.294Z,0.90
2019-05-23T11:01:13.423Z,1.07
2019-05-23T11:04:00.875Z,1.00
2019-05-23T11:06:49.177Z,1.00
2019-05-23T11:09:38.499Z,1.15
2019-05-23T11:12:24.501Z,1.30
2019-05-23T11:15:12.661Z,0.98
2019-05-23T11:18:01.002Z,1.00
2019-05-23T11:20:48.349Z,1.10
2019-05-23T11:23:46.331Z,1.27
2019-05-23T11:26:34.378Z,1.10
2019-05-23T11:29:22.799Z,1.30
2019-05-23T11:32:10.441Z,1.80
2019-05-23T11:34:58.471Z,6.30
2019-05-23T11:37:46.656Z,1.30
2019-05-23T11:40:34.643Z,1.30
2019-05-23T11:43:22.256Z,1.50
2019-05-23T11:46:22.245Z,1.50
2019-05-23T11:49:10.345Z,1.25
2019-05-23T11:51:58.253Z,1.00
2019-05-23T11:54:46.070Z,0.98
2019-05-23T11:57:37.516Z,1.10
2019-05-23T12:00:29.264Z,1.17
2019-05-23T12:03:17.253Z,0.95
2019-05-23T12:06:05.967Z,1.02
2019-05-23T12:08:52.312Z,0.90
2019-05-23T12:11:42.709Z,1.12
2019-05-23T12:14:28.854Z,1.17
2019-05-23T12:17:16.787Z,1.17
2019-05-23T12:20:05.629Z,1.20
2019-05-23T12:22:53.159Z,1.15
2019-05-23T12:25:40.771Z,2.15
2019-05-23T12:28:28.657Z,1.10
2019-05-23T12:31:16.841Z,1.00
2019-05-23T12:34:05.041Z,1.15
2019-05-23T12:36:52.699Z,0.90
2019-05-23T12:39:40.285Z,1.00
2019-05-23T12:42:28.012Z,1.12
2019-05-23T12:45:15.846Z,1.05
2019-05-23T12:48:06.316Z,0.95
2019-05-23T12:50:54.469Z,1.00
2019-05-23T12:53:41.709Z,1.20
2019-05-23T12:56:29.981Z,1.27
2019-05-23T12:59:17.215Z,1.27
2019-05-23T13:02:04.657Z,1.10
2019-05-23T13:04:52.571Z,1.15
2019-05-23T13:07:41.134Z,1.07
2019-05-23T13:10:28.347Z,1.12
2019-05-23T13:13:15.965Z,0.95
2019-05-23T13:16:03.694Z,1.40
2019-05-23T13:18:51.741Z,1.50
2019-05-23T13:21:39.364Z,1.60
2019-05-23T13:24:27.075Z,1.32
2019-05-23T13:27:14.808Z,1.32
2019-05-23T13:30:03.310Z,1.60
2019-05-23T13:32:50.705Z,1.55
2019-05-23T13:35:38.111Z,1.27
2019-05-23T13:38:25.690Z,1.35
2019-05-23T13:41:13.390Z,1.60
2019-05-23T13:44:00.993Z,1.37
2019-05-23T13:46:48.855Z,1.30
2019-05-23T13:49:37.270Z,1.40
2019-05-23T13:52:24.939Z,1.95
2019-05-23T13:55:12.483Z,2.17
2019-05-23T13:58:00.207Z,1.65
2019-05-23T14:00:48.505Z,2.00
2019-05-23T14:03:35.796Z,1.70
2019-05-23T14:06:23.463Z,1.60
2019-05-23T14:09:11.529Z,1.60
2019-05-23T14:12:19.956Z,1.72
2019-05-23T14:14:47.158Z,1.80
2019-05-23T14:17:40.505Z,1.55
2019-05-23T14:20:27.922Z,2.10
2019-05-23T14:23:44.249Z,2.22
2019-05-23T14:26:33.919Z,1.90
2019-05-23T14:29:21.528Z,1.77
2019-05-23T14:32:19.852Z,1.90
2019-05-23T14:35:07.453Z,1.62
2019-05-23T14:37:54.896Z,1.50
2019-05-23T14:40:42.461Z,1.60
2019-05-23T14:43:30.848Z,1.85
2019-05-23T14:46:18.820Z,1.62
2019-05-23T14:49:11.476Z,1.72
2019-05-23T14:52:15.474Z,1.90
2019-05-23T14:55:10.150Z,2.20
2019-05-23T14:57:55.309Z,2.17
2019-05-23T15:00:42.967Z,2.70
2019-05-23T15:03:30.797Z,2.52
2019-05-23T15:06:18.362Z,3.00
2019-05-23T15:09:07.591Z,3.00
2019-05-23T15:11:55.726Z,2.83
2019-05-23T15:14:43.424Z,2.20
2019-05-23T15:17:30.888Z,2.27
2019-05-23T15:20:18.824Z,2.87
2019-05-23T15:23:06.454Z,2.80
2019-05-23T15:25:54.919Z,3.75
2019-05-23T15:28:42.637Z,2.35
2019-05-23T15:31:30.131Z,2.02
2019-05-23T15:34:18.501Z,2.60
2019-05-23T15:37:06.065Z,3.08
2019-05-23T15:39:53.602Z,2.87
2019-05-23T15:42:41.505Z,3.52
2019-05-23T15:45:29.079Z,3.05
2019-05-23T15:48:17.194Z,5.03
2019-05-23T15:51:04.813Z,2.70
2019-05-23T15:54:00.659Z,2.80
2019-05-23T15:56:53.223Z,3.10
2019-05-23T15:59:45.260Z,2.87
2019-05-23T16:02:36.780Z,2.67
2019-05-23T16:05:24.455Z,2.67
2019-05-23T16:08:12.624Z,2.50
2019-05-23T16:11:00.889Z,5.72
2019-05-23T16:13:48.376Z,3.60
2019-05-23T16:16:36.019Z,3.17
2019-05-23T16:19:24.117Z,3.22
2019-05-23T16:22:12.622Z,7.72
2019-05-23T16:25:00.213Z,3.47
2019-05-23T16:27:48.274Z,3.40
2019-05-23T16:30:36.579Z,3.33
2019-05-23T16:33:24.179Z,3.40
2019-05-23T16:36:11.645Z,3.52
2019-05-23T16:38:59.067Z,3.17
2019-05-23T16:41:46.881Z,3.58
2019-05-23T16:44:35.285Z,3.22
2019-05-23T16:47:22.882Z,3.20
2019-05-23T16:50:11.088Z,3.20
2019-05-23T16:52:58.650Z,3.12
2019-05-23T16:55:54.339Z,3.05
2019-05-23T16:58:47.826Z,3.30
2019-05-23T17:01:57.961Z,3.45
2019-05-23T17:04:47.446Z,5.15
2019-05-23T17:07:50.345Z,3.60
2019-05-23T17:10:51.824Z,3.70
2019-05-23T17:13:46.209Z,3.00
2019-05-23T17:16:41.791Z,3.58
2019-05-23T17:19:46.450Z,3.80
2019-05-23T17:22:55.170Z,3.40
2019-05-23T17:25:49.251Z,3.37
2019-05-23T17:28:39.636Z,3.27
2019-05-23T17:31:32.088Z,3.33
2019-05-23T17:34:20.208Z,3.25
2019-05-23T17:37:08.665Z,3.60
2019-05-23T17:39:59.295Z,7.70
2019-05-23T17:42:47.466Z,3.10
2019-05-23T17:45:35.745Z,3.50
2019-05-23T17:48:23.562Z,2.62
2019-05-23T17:51:11.745Z,3.30
2019-05-23T17:53:59.671Z,3.30
2019-05-23T17:56:47.678Z,3.47
2019-05-23T17:59:35.347Z,3.30
2019-05-23T18:02:23.424Z,3.30
2019-05-23T18:05:11.345Z,4.03
2019-05-23T18:07:58.879Z,3.20
2019-05-23T18:10:47.269Z,3.10
2019-05-23T18:13:35.456Z,3.30
2019-05-23T18:16:23.307Z,3.15
2019-05-23T18:19:11.416Z,3.33
2019-05-23T18:21:59.324Z,3.40
2019-05-23T18:24:46.842Z,3.25
2019-05-23T18:27:34.838Z,5.70
2019-05-23T18:30:30.209Z,3.20
2019-05-23T18:33:17.771Z,3.12
2019-05-23T18:36:06.377Z,3.05
2019-05-23T18:38:54.668Z,2.40
2019-05-23T18:41:42.862Z,2.02
2019-05-23T18:44:30.733Z,1.82
2019-05-23T18:47:32.158Z,2.17
2019-05-23T18:50:20.640Z,2.00
2019-05-23T18:53:08.254Z,2.15
2019-05-23T18:55:56.105Z,1.70
2019-05-23T18:58:43.715Z,1.45
2019-05-23T19:01:31.363Z,1.70
2019-05-23T19:04:18.828Z,1.85
2019-05-23T19:07:06.764Z,1.92
2019-05-23T19:09:55.065Z,1.95
2019-05-23T19:12:43.347Z,2.02
2019-05-23T19:15:31.114Z,2.40
2019-05-23T19:18:18.879Z,1.90
2019-05-23T19:21:06.916Z,2.10
2019-05-23T19:23:55.256Z,1.77
2019-05-23T19:26:42.911Z,2.43
2019-05-23T19:29:30.292Z,2.20
2019-05-23T19:32:18.175Z,1.90
2019-05-23T19:35:06.098Z,2.02
2019-05-23T19:37:54.031Z,2.20
2019-05-23T19:40:42.177Z,7.50
2019-05-23T19:43:30.467Z,43.93
2019-05-23T19:46:18.289Z,14.70
2019-05-23T19:49:06.041Z,2.60
2019-05-23T19:51:53.972Z,2.77
2019-05-23T19:54:41.624Z,3.50
2019-05-23T19:57:31.107Z,3.10
2019-05-23T20:00:18.650Z,3.10
2019-05-23T20:03:06.556Z,2.87
2019-05-23T20:05:54.643Z,3.03
2019-05-23T20:08:42.227Z,3.00
2019-05-23T20:11:30.586Z,44.67
2019-05-23T20:14:18.667Z,37.97
2019-05-23T20:17:06.461Z,8.00
2019-05-23T20:19:54.734Z,4.67
2019-05-23T20:22:42.906Z,3.33
2019-05-23T20:25:31.074Z,3.73
2019-05-23T20:28:19.472Z,3.27
2019-05-23T20:31:07.413Z,3.30
2019-05-23T20:33:55.493Z,3.10
2019-05-23T20:36:43.365Z,2.60
2019-05-23T20:39:30.984Z,2.73
2019-05-23T20:42:18.768Z,2.53
2019-05-23T20:45:06.499Z,12.47
2019-05-23T20:47:54.751Z,11.20
2019-05-23T20:50:42.434Z,3.70
2019-05-23T20:53:31.373Z,3.40
2019-05-23T20:56:18.878Z,2.80
2019-05-23T20:59:06.626Z,2.70
2019-05-23T21:01:54.024Z,2.50
2019-05-23T21:04:41.621Z,27.73
2019-05-23T21:07:29.997Z,11.40
2019-05-23T21:10:42.915Z,5.00
2019-05-23T21:13:30.627Z,2.43
2019-05-23T21:16:18.269Z,2.30
2019-05-23T21:19:06.240Z,2.30
2019-05-23T21:21:54.626Z,2.60
2019-05-23T21:24:42.738Z,2.80
2019-05-23T21:27:30.904Z,2.80
2019-05-23T21:30:19.098Z,2.70
2019-05-23T21:33:07.457Z,2.70
2019-05-23T21:35:55.280Z,2.47
2019-05-23T21:38:42.950Z,3.47
2019-05-23T21:41:31.165Z,3.30
2019-05-23T21:44:19.533Z,3.20
2019-05-23T21:47:07.053Z,3.50
2019-05-23T21:49:54.768Z,3.60
2019-05-23T21:52:42.123Z,4.20
2019-05-23T21:55:35.576Z,4.23
2019-05-23T21:58:23.718Z,4.00
2019-05-23T22:01:35.512Z,4.00
2019-05-23T22:04:44.945Z,3.97
2019-05-23T22:07:32.484Z,4.10
2019-05-23T22:10:20.303Z,4.53
2019-05-23T22:13:08.572Z,4.20
2019-05-23T22:15:58.566Z,4.43
2019-05-23T22:18:46.398Z,4.20
2019-05-23T22:21:37.020Z,4.97
2019-05-23T22:24:24.585Z,4.63
2019-05-23T22:27:12.592Z,4.97
2019-05-23T22:30:00.561Z,5.03
2019-05-23T22:32:48.773Z,4.97
2019-05-23T22:35:36.912Z,4.70
2019-05-23T22:38:24.836Z,5.33
2019-05-23T22:41:12.594Z,5.00
2019-05-23T22:44:00.719Z,5.33
2019-05-23T22:46:48.246Z,5.30
2019-05-23T22:49:36.158Z,5.03
2019-05-23T22:52:23.677Z,5.80
2019-05-23T22:55:11.339Z,5.50
2019-05-23T22:57:59.058Z,5.30
2019-05-23T23:00:46.754Z,5.63
2019-05-23T23:03:34.374Z,5.77
2019-05-23T23:06:21.954Z,5.47
2019-05-23T23:09:09.448Z,5.73
2019-05-23T23:11:57.555Z,6.73
2019-05-23T23:14:45.667Z,7.30
2019-05-23T23:17:33.324Z,6.80
2019-05-23T23:20:21.486Z,6.73
2019-05-23T23:23:09.669Z,7.33
2019-05-23T23:25:57.556Z,7.87
2019-05-23T23:28:45.219Z,7.33
2019-05-23T23:31:33.044Z,7.17
2019-05-23T23:34:20.963Z,7.60
2019-05-23T23:37:09.168Z,7.33
2019-05-23T23:39:56.651Z,7.57
2019-05-23T23:42:44.793Z,7.07
2019-05-23T23:45:50.600Z,7.13
2019-05-23T23:48:56.198Z,7.10
2019-05-23T23:52:01.634Z,8.23
2019-05-23T23:55:07.708Z,8.17
2019-05-23T23:58:00.115Z,8.10
